メインページ
METAR-TAF:

METAR-TAF

空港 :

山形空港

山形, 日本

緯度: 38-25N, 経度: 140-22E, 海抜: 105m

現時点の気象観測

当レポートは2時間2分前の10:00(UTC)に作成
北/北東の風 11kt
気温 14°C
湿度 58%
気圧 1020 hPa
視程10km以上
高度3000ftの雲はほとんどない

METAR: RJSC 201000Z 02011KT 9999 FEW030 14/06 Q1020

時間: 21:02 (12:02 UTC)


TAF: 見つかりません

4,000以上の空港の気象観測と天気予報(METAR報とTAF報)

利用可能な観測所は地図上に黄色い丸と赤い丸で示す。

丸の上にカーソルを重ねると観測所名を参照できる。

次にクリックすると気象観測と天気予報を参照できる。

マップの切り替え:黒色「×」印の緑ボタンをクリックして拡大、「-」印の緑ボタンをクリックして縮小、緑色の三角印をクリックして隣りの地図に切り替え


METAR-TAF: